| time (UTC) | temp F | wind direction | speed MPH | gust MPH | rain 1hr in | rain 24hr in | rain mn in | humidity % | barometer mb |
| 20260506211517 | 44 | 0.0 | 2.0 | 0.01 | 0.40 | 0.38 | 95 | 1006.3 | |
| 20260506211037 | 44 | 0.0 | 1.0 | 0.01 | 0.40 | 0.38 | 95 | 1006.2 | |
| 20260506210517 | 44 | 338 | 1.0 | 3.0 | 0.01 | 0.40 | 0.38 | 94 | 1006.1 |
| 20260506210017 | 44 | 338 | 1.0 | 4.0 | 0.01 | 0.40 | 0.38 | 94 | 1006.1 |
| 20260506205517 | 44 | 338 | 3.0 | 4.0 | 0.01 | 0.40 | 0.38 | 94 | 1006.1 |
| 20260506205017 | 44 | 338 | 2.0 | 5.0 | 0.01 | 0.40 | 0.38 | 94 | 1006.2 |
| 20260506204518 | 44 | 315 | 1.0 | 4.0 | 0.00 | 0.39 | 0.37 | 94 | 1006.2 |
| 20260506204017 | 44 | 0.0 | 1.0 | 0.00 | 0.39 | 0.37 | 94 | 1006.1 | |
| 20260506203517 | 44 | 0.0 | 1.0 | 0.00 | 0.39 | 0.37 | 94 | 1006.1 | |
| 20260506203037 | 44 | 315 | 1.0 | 3.0 | 0.01 | 0.39 | 0.37 | 94 | 1006.1 |
| 20260506202517 | 44 | 0.0 | 2.0 | 0.01 | 0.39 | 0.37 | 94 | 1006.1 | |
| 20260506202036 | 44 | 338 | 1.0 | 4.0 | 0.01 | 0.39 | 0.37 | 94 | 1006.2 |
| 20260506201516 | 44 | 338 | 1.0 | 3.0 | 0.01 | 0.39 | 0.37 | 94 | 1006.2 |
| 20260506201017 | 45 | 338 | 1.0 | 3.0 | 0.02 | 0.39 | 0.37 | 94 | 1006.1 |
| 20260506200516 | 45 | 0.0 | 0.0 | 0.02 | 0.39 | 0.37 | 94 | 1006.1 | |
| 20260506200017 | 45 | 0.0 | 0.0 | 0.02 | 0.39 | 0.37 | 94 | 1006.0 | |
| 20260506195517 | 45 | 338 | 2.0 | 4.0 | 0.02 | 0.39 | 0.37 | 94 | 1006.0 |
| 20260506195017 | 45 | 0.0 | 2.0 | 0.03 | 0.39 | 0.37 | 94 | 1006.1 | |
| 20260506194517 | 45 | 315 | 1.0 | 2.0 | 0.03 | 0.39 | 0.37 | 94 | 1006.1 |
| 20260506194017 | 45 | 0.0 | 1.0 | 0.03 | 0.39 | 0.37 | 94 | 1006.0 | |
| 20260506193517 | 45 | 0.0 | 1.0 | 0.03 | 0.39 | 0.37 | 94 | 1006.0 | |
| 20260506193017 | 45 | 0.0 | 0.0 | 0.02 | 0.38 | 0.36 | 94 | 1006.1 | |
| 20260506192537 | 45 | 0.0 | 1.0 | 0.02 | 0.39 | 0.36 | 94 | 1006.0 | |
| 20260506192017 | 45 | 0.0 | 0.0 | 0.02 | 0.39 | 0.36 | 94 | 1006.1 | |
| 20260506191516 | 45 | 0.0 | 2.0 | 0.02 | 0.42 | 0.36 | 94 | 1006.1 | |
| 20260506191017 | 44 | 0.0 | 0.0 | 0.01 | 0.41 | 0.35 | 94 | 1006.0 | |
| 20260506190517 | 44 | 0.0 | 1.0 | 0.01 | 0.41 | 0.35 | 94 | 1006.1 | |
| 20260506190017 | 44 | 0.0 | 2.0 | 0.01 | 0.41 | 0.35 | 94 | 1006.3 | |
| 20260506185517 | 44 | 338 | 3.0 | 4.0 | 0.01 | 0.41 | 0.35 | 94 | 1006.2 |
| 20260506185037 | 44 | 0.0 | 2.0 | 0.00 | 0.40 | 0.34 | 94 | 1006.2 | |
| 20260506184537 | 44 | 0 | 1.0 | 4.0 | 0.00 | 0.40 | 0.34 | 94 | 1006.3 |
| 20260506184017 | 44 | 338 | 1.0 | 3.0 | 0.00 | 0.40 | 0.34 | 94 | 1006.4 |
| 20260506183516 | 44 | 338 | 2.0 | 4.0 | 0.01 | 0.40 | 0.34 | 94 | 1006.3 |
| 20260506183016 | 44 | 338 | 2.0 | 4.0 | 0.01 | 0.40 | 0.34 | 94 | 1006.3 |
| 20260506182516 | 44 | 338 | 2.0 | 4.0 | 0.01 | 0.40 | 0.34 | 94 | 1006.4 |
| 20260506182017 | 44 | 338 | 2.0 | 4.0 | 0.02 | 0.40 | 0.34 | 94 | 1006.3 |
| 20260506181517 | 44 | 338 | 2.0 | 4.0 | 0.02 | 0.40 | 0.34 | 94 | 1006.3 |
| 20260506181016 | 44 | 315 | 1.0 | 5.0 | 0.03 | 0.40 | 0.34 | 94 | 1006.3 |
| 20260506180517 | 44 | 0.0 | 1.0 | 0.03 | 0.40 | 0.34 | 94 | 1006.4 | |
| 20260506180016 | 44 | 338 | 2.0 | 5.0 | 0.03 | 0.40 | 0.34 | 94 | 1006.5 |
| 20260506175516 | 44 | 338 | 1.0 | 3.0 | 0.04 | 0.40 | 0.34 | 94 | 1006.5 |
| 20260506175016 | 44 | 0.0 | 3.0 | 0.04 | 0.40 | 0.34 | 94 | 1006.5 | |
| 20260506174536 | 44 | 338 | 2.0 | 4.0 | 0.04 | 0.40 | 0.34 | 94 | 1006.6 |
| 20260506174016 | 44 | 338 | 1.0 | 4.0 | 0.04 | 0.40 | 0.34 | 94 | 1006.6 |
| 20260506173517 | 44 | 338 | 1.0 | 3.0 | 0.04 | 0.39 | 0.33 | 94 | 1006.6 |
| 20260506173017 | 43 | 0.0 | 1.0 | 0.04 | 0.39 | 0.33 | 94 | 1006.5 | |
| 20260506172516 | 44 | 338 | 1.0 | 4.0 | 0.04 | 0.39 | 0.33 | 94 | 1006.8 |
| 20260506172056 | 44 | 0.0 | 2.0 | 0.04 | 0.38 | 0.32 | 94 | 1007.0 | |
| 20260506171517 | 44 | 0.0 | 2.0 | 0.04 | 0.38 | 0.32 | 94 | 1007.0 | |
| 20260506171017 | 44 | 338 | 1.0 | 3.0 | 0.04 | 0.37 | 0.31 | 94 | 1006.9 |
| 20260506170516 | 44 | 0.0 | 1.0 | 0.04 | 0.37 | 0.31 | 94 | 1007.0 | |
| 20260506170016 | 44 | 315 | 2.0 | 4.0 | 0.05 | 0.37 | 0.31 | 94 | 1006.9 |
| 20260506165516 | 44 | 315 | 3.0 | 5.0 | 0.05 | 0.36 | 0.30 | 94 | 1006.8 |
| 20260506165016 | 44 | 315 | 2.0 | 4.0 | 0.06 | 0.36 | 0.30 | 94 | 1006.9 |
| 20260506164516 | 44 | 0.0 | 1.0 | 0.06 | 0.36 | 0.30 | 94 | 1006.7 | |
| 20260506164116 | 44 | 338 | 2.0 | 4.0 | 0.07 | 0.36 | 0.30 | 94 | 1006.8 |
| 20260506163516 | 44 | 338 | 1.0 | 2.0 | 0.07 | 0.35 | 0.29 | 94 | 1006.9 |
| 20260506163017 | 44 | 0.0 | 1.0 | 0.08 | 0.35 | 0.29 | 94 | 1006.9 | |
| 20260506162516 | 44 | 338 | 2.0 | 4.0 | 0.09 | 0.35 | 0.29 | 94 | 1007.0 |
| 20260506162016 | 44 | 0.0 | 1.0 | 0.08 | 0.34 | 0.28 | 94 | 1007.0 | |
| 20260506161516 | 44 | 338 | 2.0 | 4.0 | 0.09 | 0.34 | 0.28 | 93 | 1007.1 |
| 20260506161016 | 44 | 0.0 | 2.0 | 0.08 | 0.33 | 0.27 | 93 | 1007.1 | |
| 20260506160517 | 44 | 0.0 | 2.0 | 0.09 | 0.33 | 0.27 | 93 | 1007.2 | |
| 20260506160017 | 44 | 338 | 1.0 | 3.0 | 0.09 | 0.32 | 0.26 | 93 | 1007.4 |
| 20260506155516 | 44 | 0.0 | 2.0 | 0.08 | 0.31 | 0.25 | 93 | 1007.5 | |
| 20260506155036 | 44 | 0.0 | 1.0 | 0.08 | 0.30 | 0.24 | 93 | 1007.5 | |
| 20260506154516 | 44 | 338 | 1.0 | 4.0 | 0.09 | 0.30 | 0.24 | 93 | 1007.5 |
| 20260506154036 | 44 | 0.0 | 1.0 | 0.09 | 0.29 | 0.23 | 93 | 1007.5 | |
| 20260506153517 | 44 | 338 | 1.0 | 3.0 | 0.08 | 0.28 | 0.22 | 93 | 1007.7 |
| 20260506153016 | 44 | 315 | 1.0 | 3.0 | 0.07 | 0.27 | 0.21 | 93 | 1007.7 |
| 20260506152517 | 44 | 338 | 1.0 | 4.0 | 0.07 | 0.26 | 0.20 | 93 | 1007.8 |
| 20260506152036 | 44 | 0.0 | 1.0 | 0.07 | 0.26 | 0.20 | 93 | 1007.5 | |
| 20260506151516 | 44 | 0.0 | 0.0 | 0.06 | 0.25 | 0.19 | 93 | 1007.6 | |
| 20260506151016 | 44 | 338 | 1.0 | 3.0 | 0.06 | 0.25 | 0.19 | 93 | 1007.6 |
| 20260506150516 | 44 | 338 | 1.0 | 4.0 | 0.05 | 0.24 | 0.18 | 93 | 1007.6 |
| 20260506150036 | 44 | 0.0 | 1.0 | 0.05 | 0.23 | 0.17 | 93 | 1007.5 | |
| 20260506145537 | 44 | 0.0 | 2.0 | 0.05 | 0.23 | 0.17 | 93 | 1007.5 | |
| 20260506145016 | 44 | 0.0 | 3.0 | 0.04 | 0.22 | 0.16 | 92 | 1007.5 | |
| 20260506144516 | 44 | 0.0 | 1.0 | 0.03 | 0.21 | 0.15 | 93 | 1007.4 | |
| 20260506144016 | 44 | 0.0 | 1.0 | 0.03 | 0.20 | 0.14 | 92 | 1007.5 | |
| 20260506143516 | 44 | 338 | 1.0 | 3.0 | 0.04 | 0.20 | 0.14 | 92 | 1007.5 |
| 20260506143016 | 44 | 338 | 2.0 | 4.0 | 0.04 | 0.20 | 0.14 | 92 | 1007.5 |
| 20260506142517 | 44 | 0.0 | 0.0 | 0.04 | 0.19 | 0.13 | 92 | 1007.5 | |
| 20260506142016 | 44 | 0.0 | 1.0 | 0.05 | 0.19 | 0.13 | 92 | 1007.4 | |
| 20260506141516 | 44 | 0.0 | 0.0 | 0.05 | 0.19 | 0.13 | 92 | 1007.6 | |
| 20260506141016 | 44 | 355 | 0.0 | 0.0 | 0.05 | 0.19 | 0.13 | 92 | 1007.6 |
| 20260506140516 | 44 | 338 | 1.0 | 3.0 | 0.06 | 0.19 | 0.13 | 92 | 1007.6 |
| 20260506140016 | 45 | 0.0 | 2.0 | 0.05 | 0.18 | 0.12 | 92 | 1007.5 | |
| 20260506135517 | 45 | 338 | 2.0 | 3.0 | 0.06 | 0.18 | 0.12 | 93 | 1007.3 |
| 20260506135016 | 45 | 338 | 1.0 | 3.0 | 0.06 | 0.18 | 0.12 | 92 | 1007.4 |
| 20260506134521 | 45 | 0.0 | 1.0 | 0.07 | 0.18 | 0.12 | 92 | 1007.6 | |
| 20260506134017 | 45 | 0.0 | 1.0 | 0.06 | 0.17 | 0.11 | 92 | 1007.6 | |
| 20260506133516 | 45 | 0.0 | 1.0 | 0.06 | 0.16 | 0.10 | 92 | 1007.4 | |
| 20260506133016 | 45 | 0 | 2.0 | 4.0 | 0.06 | 0.16 | 0.10 | 92 | 1007.4 |
| 20260506132537 | 45 | 0.0 | 1.0 | 0.05 | 0.15 | 0.09 | 91 | 1007.4 | |
| 20260506132016 | 45 | 338 | 1.0 | 6.0 | 0.04 | 0.14 | 0.08 | 91 | 1007.5 |
| 20260506131516 | 45 | 203 | 1.0 | 3.0 | 0.04 | 0.14 | 0.08 | 91 | 1006.9 |
| 20260506131036 | 45 | 0 | 1.0 | 4.0 | 0.05 | 0.14 | 0.08 | 91 | 1007.7 |
| 20260506130516 | 45 | 0.0 | 0.0 | 0.04 | 0.13 | 0.07 | 91 | 1007.0 | |
| 20260506130017 | 45 | 0.0 | 1.0 | 0.04 | 0.13 | 0.07 | 91 | 1007.3 | |
| 20260506125516 | 45 | 338 | 2.0 | 3.0 | 0.03 | 0.12 | 0.06 | 90 | 1007.6 |
| 20260506125016 | 46 | 0.0 | 2.0 | 0.03 | 0.12 | 0.06 | 90 | 1007.6 | |
| 20260506124516 | 46 | 315 | 2.0 | 4.0 | 0.02 | 0.11 | 0.05 | 90 | 1007.5 |
| 20260506124016 | 46 | 338 | 1.0 | 4.0 | 0.02 | 0.11 | 0.05 | 90 | 1007.6 |
| 20260506123516 | 46 | 338 | 2.0 | 4.0 | 0.01 | 0.10 | 0.04 | 89 | 1007.7 |
| 20260506123016 | 46 | 0.0 | 1.0 | 0.01 | 0.10 | 0.04 | 89 | 1007.4 | |
| 20260506122517 | 46 | 315 | 1.0 | 3.0 | 0.01 | 0.10 | 0.04 | 89 | 1007.3 |
| 20260506122016 | 47 | 338 | 2.0 | 4.0 | 0.01 | 0.10 | 0.04 | 89 | 1007.9 |
| 20260506121536 | 47 | 338 | 3.0 | 10.0 | 0.01 | 0.10 | 0.04 | 89 | 1007.5 |
| 20260506121016 | 47 | 338 | 2.0 | 4.0 | 0.00 | 0.09 | 0.03 | 89 | 1007.6 |
| 20260506120516 | 47 | 338 | 2.0 | 4.0 | 0.00 | 0.09 | 0.03 | 88 | 1007.6 |
| 20260506120016 | 47 | 0.0 | 2.0 | 0.00 | 0.09 | 0.03 | 88 | 1007.4 | |
| 20260506115517 | 48 | 338 | 1.0 | 4.0 | 0.00 | 0.09 | 0.03 | 87 | 1007.3 |
| 20260506115016 | 48 | 338 | 1.0 | 4.0 | 0.00 | 0.09 | 0.03 | 87 | 1007.6 |
| 20260506114516 | 48 | 338 | 2.0 | 4.0 | 0.00 | 0.09 | 0.03 | 87 | 1007.4 |
| 20260506114016 | 48 | 338 | 2.0 | 4.0 | 0.00 | 0.09 | 0.03 | 87 | 1007.5 |
| 20260506113516 | 48 | 338 | 2.0 | 5.0 | 0.00 | 0.09 | 0.03 | 87 | 1007.6 |
| 20260506113016 | 48 | 0.0 | 1.0 | 0.00 | 0.09 | 0.03 | 87 | 1007.4 | |
| 20260506112516 | 48 | 0.0 | 3.0 | 0.00 | 0.09 | 0.03 | 87 | 1007.3 | |
| 20260506112016 | 48 | 338 | 1.0 | 3.0 | 0.00 | 0.09 | 0.03 | 87 | 1007.6 |
| 20260506111516 | 48 | 0 | 1.0 | 3.0 | 0.00 | 0.09 | 0.03 | 87 | 1007.2 |
| 20260506111016 | 49 | 0.0 | 1.0 | 0.00 | 0.09 | 0.03 | 87 | 1007.3 | |
| 20260506110516 | 49 | 0.0 | 2.0 | 0.00 | 0.09 | 0.03 | 88 | 1007.6 | |
| 20260506110036 | 49 | 338 | 2.0 | 3.0 | 0.00 | 0.09 | 0.03 | 88 | 1007.6 |
| 20260506105537 | 49 | 338 | 3.0 | 6.0 | 0.00 | 0.09 | 0.03 | 88 | 1007.4 |
| 20260506105016 | 50 | 338 | 1.0 | 3.0 | 0.00 | 0.09 | 0.03 | 88 | 1007.2 |
| 20260506104516 | 50 | 338 | 3.0 | 5.0 | 0.00 | 0.09 | 0.03 | 88 | 1007.0 |
| 20260506104016 | 50 | 315 | 2.0 | 4.0 | 0.00 | 0.09 | 0.03 | 89 | 1007.0 |
| 20260506103516 | 51 | 338 | 2.0 | 5.0 | 0.00 | 0.09 | 0.03 | 89 | 1006.9 |
| 20260506103036 | 51 | 338 | 1.0 | 2.0 | 0.00 | 0.09 | 0.03 | 89 | 1006.8 |
| 20260506102516 | 51 | 315 | 1.0 | 2.0 | 0.00 | 0.09 | 0.03 | 89 | 1006.8 |
| 20260506102016 | 51 | 338 | 1.0 | 3.0 | 0.00 | 0.09 | 0.03 | 90 | 1006.7 |
| 20260506101516 | 51 | 338 | 1.0 | 3.0 | 0.00 | 0.09 | 0.03 | 90 | 1006.7 |
| 20260506101035 | 51 | 338 | 1.0 | 3.0 | 0.00 | 0.09 | 0.03 | 90 | 1006.7 |
| 20260506100516 | 51 | 338 | 1.0 | 3.0 | 0.00 | 0.09 | 0.03 | 90 | 1006.5 |
| 20260506100016 | 52 | 0.0 | 1.0 | 0.00 | 0.09 | 0.03 | 90 | 1006.7 | |
| 20260506095517 | 52 | 0.0 | 1.0 | 0.00 | 0.09 | 0.03 | 91 | 1006.7 | |
| 20260506095016 | 52 | 338 | 1.0 | 4.0 | 0.00 | 0.09 | 0.03 | 91 | 1007.2 |
| 20260506094516 | 52 | 0.0 | 2.0 | 0.00 | 0.09 | 0.03 | 91 | 1007.0 | |
| 20260506094016 | 52 | 0.0 | 2.0 | 0.00 | 0.09 | 0.03 | 91 | 1007.1 | |
| 20260506093516 | 52 | 0.0 | 0.0 | 0.00 | 0.09 | 0.03 | 91 | 1006.6 | |
| 20260506093016 | 52 | 338 | 1.0 | 5.0 | 0.00 | 0.09 | 0.03 | 92 | 1008.2 |
| 20260506092516 | 53 | 0.0 | 1.0 | 0.00 | 0.09 | 0.03 | 92 | 1007.5 | |
| 20260506092016 | 53 | 0.0 | 0.0 | 0.00 | 0.09 | 0.03 | 92 | 1007.2 | |
| 20260506091515 | 54 | 0.0 | 0.0 | 0.00 | 0.09 | 0.03 | 92 | 1007.4 | |
| 20260506091036 | 54 | 0.0 | 1.0 | 0.00 | 0.09 | 0.03 | 92 | 1007.3 | |
| 20260506090515 | 54 | 0.0 | 0.0 | 0.00 | 0.09 | 0.03 | 92 | 1007.1 | |
| 20260506090055 | 54 | 0.0 | 0.0 | 0.00 | 0.09 | 0.03 | 92 | 1007.2 | |
| 20260506085516 | 54 | 0.0 | 0.0 | 0.00 | 0.09 | 0.03 | 92 | 1007.2 | |
| 20260506085035 | 54 | 0.0 | 0.0 | 0.00 | 0.09 | 0.03 | 91 | 1007.0 | |
| 20260506084516 | 54 | 0.0 | 0.0 | 0.00 | 0.09 | 0.03 | 91 | 1007.1 | |
| 20260506084016 | 54 | 0.0 | 0.0 | 0.00 | 0.09 | 0.03 | 90 | 1007.5 | |
| 20260506083516 | 54 | 0.0 | 0.0 | 0.00 | 0.09 | 0.03 | 90 | 1007.3 | |
| 20260506083016 | 55 | 0.0 | 0.0 | 0.01 | 0.09 | 0.03 | 89 | 1007.1 | |
| 20260506082515 | 55 | 0.0 | 0.0 | 0.01 | 0.09 | 0.03 | 89 | 1007.2 | |
| 20260506082016 | 55 | 0.0 | 0.0 | 0.01 | 0.09 | 0.03 | 88 | 1007.4 | |
| 20260506081516 | 55 | 0.0 | 0.0 | 0.01 | 0.09 | 0.03 | 88 | 1007.3 | |
| 20260506081015 | 55 | 0.0 | 0.0 | 0.01 | 0.09 | 0.03 | 87 | 1007.9 | |
| 20260506080536 | 55 | 0.0 | 0.0 | 0.01 | 0.09 | 0.03 | 87 | 1007.4 | |
| 20260506073516 | 56 | 248 | 2.0 | 3.0 | 0.01 | 0.09 | 0.03 | 85 | 1008.4 |
| 20260506073015 | 56 | 0.0 | 0.0 | 0.00 | 0.08 | 0.02 | 84 | 1007.0 | |
| 20260506072515 | 56 | 0.0 | 0.0 | 0.00 | 0.08 | 0.02 | 83 | 1006.9 | |
| 20260506072015 | 56 | 0.0 | 0.0 | 0.01 | 0.08 | 0.02 | 82 | 1007.1 | |
| 20260506071517 | 56 | 0.0 | 0.0 | 0.01 | 0.08 | 0.02 | 82 | 1007.3 | |
| 20260506071016 | 56 | 0.0 | 0.0 | 0.01 | 0.08 | 0.02 | 82 | 1007.2 | |
| 20260506070515 | 56 | 0.0 | 0.0 | 0.01 | 0.08 | 0.02 | 82 | 1007.2 | |
| 20260506062515 | 58 | 0.0 | 0.0 | 0.01 | 0.08 | 0.02 | 81 | 1007.8 | |
| 20260506062018 | 58 | 0.0 | 0.0 | 0.00 | 0.07 | 0.01 | 82 | 1007.7 | |
| 20260506061515 | 58 | 0.0 | 0.0 | 0.00 | 0.07 | 0.01 | 81 | 1007.5 | |
| 20260506061035 | 58 | 0.0 | 0.0 | 0.00 | 0.07 | 0.01 | 81 | 1007.2 | |
| 20260506060516 | 58 | 0.0 | 0.0 | 0.00 | 0.07 | 0.01 | 81 | 1007.3 | |
| 20260506051015 | 58 | 0.0 | 0.0 | 0.01 | 0.07 | 0.01 | 84 | 1008.0 | |
| 20260506050515 | 58 | 0.0 | 2.0 | 0.01 | 0.07 | 0.01 | 85 | 1007.9 | |
| 20260506045015 | 57 | 0.0 | 0.0 | 0.01 | 0.07 | 0.01 | 90 | 1008.1 | |
| 20260506044515 | 57 | 0.0 | 0.0 | 0.01 | 0.07 | 0.01 | 90 | 1008.2 | |
| 20260506044015 | 57 | 0.0 | 2.0 | 0.01 | 0.07 | 0.01 | 90 | 1008.1 | |
| 20260506043535 | 57 | 0.0 | 0.0 | 0.01 | 0.07 | 0.01 | 90 | 1007.7 | |
| 20260506043016 | 57 | 0.0 | 0.0 | 0.01 | 0.07 | 0.01 | 90 | 1007.5 | |
| 20260506042515 | 57 | 0.0 | 0.0 | 0.02 | 0.07 | 0.01 | 90 | 1007.8 | |
| 20260506042015 | 57 | 0.0 | 0.0 | 0.03 | 0.07 | 0.01 | 89 | 1007.8 | |
| 20260506041515 | 57 | 0.0 | 0.0 | 0.03 | 0.07 | 0.01 | 89 | 1007.3 | |
| 20260506041015 | 57 | 0.0 | 0.0 | 0.02 | 0.06 | 0.00 | 89 | 1007.6 | |
| 20260506040515 | 58 | 0.0 | 0.0 | 0.02 | 0.06 | 0.00 | 89 | 1007.5 | |
| 20260506040016 | 58 | 0.0 | 0.0 | 0.02 | 0.06 | 0.06 | 89 | 1007.3 | |
| 20260506035515 | 58 | 0.0 | 0.0 | 0.02 | 0.06 | 0.06 | 88 | 1007.1 | |
| 20260506035016 | 58 | 0.0 | 0.0 | 0.02 | 0.06 | 0.06 | 87 | 1007.1 | |
| 20260506034516 | 59 | 0.0 | 0.0 | 0.02 | 0.06 | 0.06 | 86 | 1007.5 | |
| 20260506034015 | 59 | 0.0 | 1.0 | 0.02 | 0.06 | 0.06 | 85 | 1007.5 | |
| 20260506033536 | 59 | 0.0 | 0.0 | 0.02 | 0.06 | 0.06 | 84 | 1007.5 | |
| 20260506033016 | 60 | 0.0 | 0.0 | 0.02 | 0.06 | 0.06 | 82 | 1007.6 | |
| 20260506032516 | 61 | 315 | 1.0 | 4.0 | 0.01 | 0.05 | 0.05 | 80 | 1007.8 |
| 20260506032016 | 62 | 338 | 1.0 | 3.0 | 0.00 | 0.04 | 0.04 | 78 | 1007.6 |
| 20260506031516 | 62 | 248 | 1.0 | 4.0 | 0.00 | 0.04 | 0.04 | 77 | 1006.9 |
| 20260506031015 | 62 | 203 | 1.0 | 4.0 | 0.00 | 0.04 | 0.04 | 76 | 1006.6 |
| 20260506030536 | 62 | 203 | 1.0 | 3.0 | 0.00 | 0.04 | 0.04 | 76 | 1006.6 |
| 20260506030035 | 62 | 203 | 1.0 | 3.0 | 0.00 | 0.04 | 0.04 | 76 | 1006.6 |
| 20260506025516 | 63 | 0.0 | 1.0 | 0.00 | 0.04 | 0.04 | 75 | 1006.6 | |
| 20260506025016 | 63 | 0.0 | 1.0 | 0.00 | 0.04 | 0.04 | 75 | 1006.4 | |
| 20260506024516 | 63 | 0.0 | 1.0 | 0.00 | 0.04 | 0.04 | 75 | 1006.4 | |
| 20260506024035 | 63 | 0.0 | 1.0 | 0.00 | 0.04 | 0.04 | 74 | 1006.3 | |
| 20260506023516 | 63 | 0.0 | 1.0 | 0.00 | 0.04 | 0.04 | 74 | 1006.3 | |
| 20260506023015 | 63 | 203 | 1.0 | 5.0 | 0.00 | 0.04 | 0.04 | 75 | 1006.2 |
| 20260506022536 | 63 | 0.0 | 5.0 | 0.00 | 0.04 | 0.04 | 75 | 1006.2 | |
| 20260506022016 | 63 | 180 | 1.0 | 4.0 | 0.00 | 0.04 | 0.04 | 75 | 1006.2 |
| 20260506021535 | 63 | 180 | 1.0 | 3.0 | 0.00 | 0.04 | 0.04 | 74 | 1006.1 |
| 20260506021015 | 63 | 180 | 1.0 | 3.0 | 0.00 | 0.04 | 0.04 | 74 | 1006.1 |
| 20260506020515 | 63 | 158 | 1.0 | 4.0 | 0.00 | 0.04 | 0.04 | 74 | 1005.9 |
| 20260506020016 | 63 | 180 | 1.0 | 4.0 | 0.00 | 0.04 | 0.04 | 73 | 1006.1 |
| 20260506015516 | 63 | 0.0 | 4.0 | 0.00 | 0.04 | 0.04 | 73 | 1006.1 | |
| 20260506015015 | 63 | 180 | 1.0 | 3.0 | 0.00 | 0.04 | 0.04 | 73 | 1006.1 |
| 20260506014516 | 63 | 203 | 1.0 | 3.0 | 0.00 | 0.04 | 0.04 | 74 | 1006.1 |
| 20260506014015 | 63 | 0.0 | 0.0 | 0.00 | 0.04 | 0.04 | 74 | 1006.1 | |
| 20260506013515 | 63 | 225 | 2.0 | 3.0 | 0.00 | 0.04 | 0.04 | 74 | 1006.1 |
| 20260506013021 | 63 | 158 | 1.0 | 4.0 | 0.00 | 0.04 | 0.04 | 74 | 1005.9 |
| 20260506012515 | 63 | 0.0 | 3.0 | 0.00 | 0.04 | 0.04 | 73 | 1005.8 | |
| 20260506012015 | 64 | 0.0 | 1.0 | 0.00 | 0.04 | 0.04 | 71 | 1005.8 | |
| 20260506011516 | 64 | 203 | 1.0 | 4.0 | 0.00 | 0.04 | 0.04 | 70 | 1005.5 |
| 20260506011015 | 64 | 180 | 2.0 | 4.0 | 0.00 | 0.04 | 0.04 | 69 | 1005.3 |
| 20260506010515 | 65 | 158 | 3.0 | 4.0 | 0.00 | 0.04 | 0.04 | 69 | 1005.1 |
| 20260506010015 | 65 | 180 | 2.0 | 4.0 | 0.00 | 0.04 | 0.04 | 68 | 1005.1 |
| 20260506005515 | 65 | 0.0 | 2.0 | 0.00 | 0.04 | 0.04 | 68 | 1005.1 | |
| 20260506005015 | 64 | 0.0 | 1.0 | 0.00 | 0.04 | 0.04 | 69 | 1005.2 | |
| 20260506004515 | 64 | 158 | 1.0 | 4.0 | 0.00 | 0.04 | 0.04 | 69 | 1005.2 |
| 20260506004036 | 65 | 180 | 1.0 | 3.0 | 0.00 | 0.04 | 0.04 | 69 | 1004.8 |
| 20260506003515 | 64 | 180 | 1.0 | 4.0 | 0.00 | 0.04 | 0.04 | 69 | 1004.9 |
| 20260506003035 | 64 | 180 | 1.0 | 3.0 | 0.00 | 0.04 | 0.04 | 70 | 1004.7 |
| 20260506002515 | 64 | 0.0 | 1.0 | 0.00 | 0.04 | 0.04 | 70 | 1004.7 | |
| 20260506002035 | 64 | 0.0 | 0.0 | 0.00 | 0.04 | 0.04 | 70 | 1004.7 | |
| 20260506001516 | 64 | 0.0 | 0.0 | 0.00 | 0.04 | 0.04 | 69 | 1004.7 | |
| 20260506001015 | 65 | 180 | 1.0 | 3.0 | 0.00 | 0.04 | 0.04 | 69 | 1004.8 |
| 20260506000515 | 65 | 175 | 0.0 | 0.0 | 0.00 | 0.04 | 0.04 | 69 | 1004.8 |
| 20260506000015 | 65 | 158 | 1.0 | 3.0 | 0.00 | 0.04 | 0.04 | 69 | 1004.7 |
| 20260505235515 | 65 | 180 | 2.0 | 4.0 | 0.00 | 0.04 | 0.04 | 69 | 1004.7 |
| 20260505235015 | 65 | 203 | 1.0 | 4.0 | 0.00 | 0.04 | 0.04 | 69 | 1004.6 |
| 20260505234515 | 65 | 180 | 1.0 | 3.0 | 0.00 | 0.04 | 0.04 | 69 | 1004.6 |
| 20260505234035 | 64 | 0.0 | 3.0 | 0.00 | 0.04 | 0.04 | 70 | 1004.5 | |
| 20260505233536 | 64 | 180 | 1.0 | 5.0 | 0.00 | 0.04 | 0.04 | 70 | 1004.5 |
| 20260505233015 | 64 | 180 | 1.0 | 4.0 | 0.00 | 0.04 | 0.04 | 71 | 1004.7 |
| 20260505232515 | 65 | 135 | 1.0 | 3.0 | 0.00 | 0.04 | 0.04 | 71 | 1004.7 |
| 20260505232015 | 65 | 135 | 2.0 | 4.0 | 0.00 | 0.04 | 0.04 | 70 | 1004.7 |
| 20260505231515 | 65 | 135 | 1.0 | 3.0 | 0.00 | 0.04 | 0.04 | 70 | 1004.6 |
| 20260505231015 | 65 | 180 | 1.0 | 4.0 | 0.00 | 0.04 | 0.04 | 70 | 1004.5 |
| 20260505230515 | 65 | 0.0 | 1.0 | 0.00 | 0.04 | 0.04 | 69 | 1004.4 | |
| 20260505230016 | 65 | 0.0 | 0.0 | 0.00 | 0.04 | 0.04 | 69 | 1004.3 | |
| 20260505225515 | 65 | 0.0 | 0.0 | 0.00 | 0.04 | 0.04 | 69 | 1004.4 | |
| 20260505225015 | 66 | 0.0 | 0.0 | 0.00 | 0.04 | 0.04 | 68 | 1004.4 | |
| 20260505224515 | 67 | 0.0 | 0.0 | 0.00 | 0.04 | 0.04 | 65 | 1004.5 | |
| 20260505224016 | 67 | 0.0 | 0.0 | 0.00 | 0.04 | 0.04 | 63 | 1004.5 | |
| 20260505223515 | 67 | 0.0 | 0.0 | 0.00 | 0.04 | 0.04 | 62 | 1004.6 | |
| 20260505223015 | 67 | 180 | 1.0 | 3.0 | 0.00 | 0.04 | 0.04 | 63 | 1004.6 |
| 20260505222515 | 67 | 0.0 | 0.0 | 0.00 | 0.04 | 0.04 | 63 | 1004.3 | |
| 20260505222015 | 67 | 270 | 2.0 | 3.0 | 0.00 | 0.04 | 0.04 | 63 | 1004.0 |
| 20260505221515 | 67 | 315 | 1.0 | 3.0 | 0.00 | 0.04 | 0.04 | 63 | 1003.8 |
| 20260505221015 | 67 | 248 | 1.0 | 3.0 | 0.00 | 0.04 | 0.04 | 63 | 1003.9 |
| 20260505220515 | 67 | 248 | 2.0 | 4.0 | 0.00 | 0.04 | 0.04 | 64 | 1004.0 |
| 20260505220016 | 67 | 0.0 | 1.0 | 0.00 | 0.04 | 0.04 | 64 | 1004.0 | |
| 20260505215515 | 67 | 225 | 1.0 | 2.0 | 0.00 | 0.04 | 0.04 | 64 | 1004.1 |
| 20260505215015 | 67 | 203 | 1.0 | 5.0 | 0.00 | 0.04 | 0.04 | 64 | 1004.4 |
| 20260505214535 | 67 | 180 | 3.0 | 10.0 | 0.00 | 0.04 | 0.04 | 64 | 1004.5 |
| 20260505214015 | 67 | 203 | 2.0 | 5.0 | 0.00 | 0.04 | 0.04 | 65 | 1004.3 |
| 20260505213515 | 67 | 225 | 1.0 | 3.0 | 0.00 | 0.04 | 0.04 | 65 | 1003.8 |
| 20260505213016 | 67 | 270 | 1.0 | 6.0 | 0.00 | 0.04 | 0.04 | 66 | 1004.0 |
| 20260505212515 | 67 | 203 | 2.0 | 5.0 | 0.00 | 0.04 | 0.04 | 66 | 1004.2 |
| 20260505212015 | 67 | 0.0 | 2.0 | 0.00 | 0.04 | 0.04 | 66 | 1004.0 |